Time;durP1;ratioP1;P1;durP2;ratioP2;P2;SDS_P1;SDS_P2;PMS_P1;PMS_P2;Temp;Humidity;BMP_temperature;BMP_pressure;BME280_temperature;BME280_humidity;BME280_pressure;Samples;Min_cycle;Max_cycle;Signal;HPM_P1;HPM_P2
2022/03/01 00:02:23;;;;;;;22.63;14.75;;;;;;;3.17;62.59;102749.38;5006542;28;20096;-72
2022/03/01 00:04:49;;;;;;;25.00;15.32;;;;;;;3.12;61.78;102747.69;5010937;28;20021;-73
2022/03/01 00:07:14;;;;;;;21.98;15.48;;;;;;;3.10;62.67;102753.78;5010878;28;20474;-73
2022/03/01 00:09:39;;;;;;;26.95;16.23;;;;;;;3.06;62.80;102757.31;5010664;28;20034;-75
2022/03/01 00:12:05;;;;;;;21.85;15.45;;;;;;;3.01;63.40;102762.56;5010966;28;20025;-75
2022/03/01 00:14:34;;;;;;;23.10;14.50;;;;;;;2.99;63.04;102758.25;5009656;28;20033;-75
2022/03/01 00:16:59;;;;;;;22.65;14.82;;;;;;;2.95;62.72;102759.19;5010741;28;20576;-75
2022/03/01 00:19:27;;;;;;;22.27;15.48;;;;;;;2.90;63.93;102756.63;5010318;28;20064;-75
2022/03/01 00:21:53;;;;;;;23.13;15.80;;;;;;;2.84;63.83;102756.72;5005436;28;20033;-75
2022/03/01 00:24:19;;;;;;;22.00;15.18;;;;;;;2.80;63.81;102749.78;5009256;28;20112;-75
2022/03/01 00:26:44;;;;;;;21.98;14.82;;;;;;;2.72;64.30;102759.41;5009193;28;20105;-73
2022/03/01 00:29:09;;;;;;;24.33;14.88;;;;;;;2.63;64.16;102754.31;5025841;28;20501;-73
2022/03/01 00:31:34;;;;;;;21.45;15.00;;;;;;;2.49;64.73;102754.47;5009793;28;20080;-73
2022/03/01 00:34:00;;;;;;;24.75;15.60;;;;;;;2.43;65.33;102755.41;5009672;28;20033;-72
2022/03/01 00:36:25;;;;;;;23.67;15.45;;;;;;;2.36;66.13;102761.50;5009115;28;20030;-74
2022/03/01 00:38:50;;;;;;;23.52;15.63;;;;;;;2.30;65.91;102761.56;5009427;28;20056;-73
2022/03/01 00:41:16;;;;;;;21.90;15.25;;;;;;;2.25;66.62;102759.88;5010112;28;20386;-73
2022/03/01 00:43:41;;;;;;;22.30;14.75;;;;;;;2.16;65.87;102759.09;5010049;28;20026;-73
2022/03/01 00:46:06;;;;;;;22.77;15.60;;;;;;;2.10;66.72;102764.34;5028461;28;20482;-73
2022/03/01 00:48:32;;;;;;;22.85;15.25;;;;;;;2.07;66.68;102755.72;5029412;28;20061;-73
2022/03/01 00:50:57;;;;;;;23.50;15.38;;;;;;;2.08;65.36;102754.84;5030493;28;20029;-73
2022/03/01 00:53:22;;;;;;;24.63;15.43;;;;;;;2.08;65.97;102762.63;5030412;28;20108;-73
2022/03/01 00:55:48;;;;;;;26.30;15.93;;;;;;;2.08;65.83;102760.03;5009231;28;20054;-74
2022/03/01 00:58:14;;;;;;;24.05;15.25;;;;;;;2.07;66.39;102761.78;5010620;28;20453;-75
2022/03/01 01:00:39;;;;;;;27.05;15.07;;;;;;;2.06;65.31;102764.38;5008740;28;20406;-73
2022/03/01 01:03:05;;;;;;;23.20;15.55;;;;;;;2.07;65.33;102771.28;5008726;28;20030;-72
2022/03/01 01:05:34;;;;;;;23.98;15.45;;;;;;;2.06;65.13;102769.56;5010266;28;20105;-72
2022/03/01 01:07:59;;;;;;;23.33;15.02;;;;;;;2.05;65.81;102757.47;5010624;28;20033;-73
2022/03/01 01:10:24;;;;;;;25.15;14.57;;;;;;;2.06;65.77;102759.19;5009516;28;20377;-73
2022/03/01 01:12:50;;;;;;;23.83;14.95;;;;;;;2.05;65.34;102762.66;5009148;28;20070;-72
2022/03/01 01:15:17;;;;;;;22.45;14.90;;;;;;;2.05;65.03;102755.72;5009940;28;20489;-73
2022/03/01 01:17:42;;;;;;;24.40;15.10;;;;;;;2.06;65.12;102764.38;5023708;28;20024;-72
2022/03/01 01:20:09;;;;;;;21.80;15.05;;;;;;;2.06;65.52;102756.59;5009840;28;20382;-73
2022/03/01 01:22:40;;;;;;;25.02;15.25;;;;;;;2.07;65.21;102755.72;5007465;28;20060;-75
2022/03/01 01:25:14;;;;;;;22.30;14.52;;;;;;;2.06;64.49;102756.59;5009859;28;20096;-72
2022/03/01 01:27:42;;;;;;;22.08;14.68;;;;;;;2.06;65.02;102759.19;5009832;28;20033;-73
2022/03/01 01:30:13;;;;;;;23.42;14.63;;;;;;;2.05;64.52;102758.31;5013307;28;20397;-74
2022/03/01 01:32:39;;;;;;;21.05;14.25;;;;;;;2.04;65.33;102753.16;5012903;28;20117;-73
2022/03/01 01:35:07;;;;;;;23.30;14.30;;;;;;;2.03;65.69;102759.22;5013761;28;20046;-73
2022/03/01 01:37:33;;;;;;;22.23;14.50;;;;;;;2.02;65.09;102749.69;5012528;28;20367;-73
2022/03/01 01:39:58;;;;;;;24.70;14.70;;;;;;;2.00;65.31;102754.91;5013799;28;20025;-74
2022/03/01 01:42:23;;;;;;;23.52;14.80;;;;;;;2.01;65.20;102764.41;5014204;28;20156;-73
2022/03/01 01:44:49;;;;;;;24.08;14.73;;;;;;;2.00;65.16;102756.59;5030222;28;20025;-74
2022/03/01 01:47:14;;;;;;;25.80;14.90;;;;;;;1.99;65.67;102750.56;5033959;28;20107;-73
2022/03/01 01:49:39;;;;;;;23.20;13.95;;;;;;;2.00;64.78;102748.81;5033214;28;20362;-74
2022/03/01 01:52:05;;;;;;;25.75;14.57;;;;;;;2.01;65.06;102750.56;5033079;28;20108;-74
2022/03/01 01:54:34;;;;;;;25.40;14.90;;;;;;;1.99;65.41;102752.28;5033312;28;20100;-73
2022/03/01 01:56:59;;;;;;;24.60;14.73;;;;;;;1.98;65.19;102745.38;5033714;28;20061;-74
2022/03/01 01:59:24;;;;;;;22.98;14.70;;;;;;;1.99;64.83;102747.09;5014577;28;20022;-73
2022/03/01 02:01:50;;;;;;;21.25;14.27;;;;;;;2.00;65.43;102748.81;5006639;28;20025;-74
2022/03/01 02:04:15;;;;;;;21.98;14.98;;;;;;;1.99;65.41;102749.69;5013841;28;20053;-74
2022/03/01 02:06:51;;;;;;;23.33;14.43;;;;;;;2.01;65.10;102740.19;5012473;28;20108;-73
2022/03/01 02:09:16;;;;;;;22.08;14.57;;;;;;;2.00;65.58;102746.22;5013748;28;20021;-73
2022/03/01 02:11:42;;;;;;;20.10;14.50;;;;;;;1.99;64.96;102740.16;5013671;28;20032;-73
2022/03/01 02:14:07;;;;;;;22.42;15.32;;;;;;;1.99;64.96;102741.91;5013180;28;20109;-73
2022/03/01 02:16:33;;;;;;;22.40;14.38;;;;;;;1.99;64.89;102736.72;5009330;28;20130;-73
2022/03/01 02:18:58;;;;;;;22.10;14.38;;;;;;;1.99;64.78;102742.78;5012124;28;20033;-73
2022/03/01 02:21:24;;;;;;;22.30;14.95;;;;;;;1.98;64.79;102735.00;5012836;28;20384;-74
2022/03/01 02:23:49;;;;;;;22.20;14.80;;;;;;;2.00;64.88;102743.63;5012513;28;20474;-73
2022/03/01 02:26:14;;;;;;;24.23;15.10;;;;;;;1.98;65.31;102738.44;5011978;28;20057;-74
2022/03/01 02:28:40;;;;;;;28.55;14.10;;;;;;;1.99;65.07;102741.91;5012470;28;20496;-74
2022/03/01 02:31:05;;;;;;;27.27;14.77;;;;;;;1.99;65.37;102741.91;5012413;28;20449;-73
2022/03/01 02:33:30;;;;;;;25.60;14.48;;;;;;;1.98;64.18;102745.38;5011797;28;20029;-73
2022/03/01 02:35:56;;;;;;;27.60;14.07;;;;;;;1.98;64.36;102735.00;5009910;28;20042;-73
2022/03/01 02:38:21;;;;;;;24.52;14.45;;;;;;;1.98;64.41;102745.38;5012082;28;20109;-73
2022/03/01 02:40:46;;;;;;;24.67;14.50;;;;;;;1.98;64.45;102740.19;5011646;28;20110;-73
2022/03/01 02:43:12;;;;;;;25.95;14.43;;;;;;;1.97;64.11;102734.13;5010928;28;20389;-73
2022/03/01 02:45:37;;;;;;;22.95;14.05;;;;;;;1.98;64.00;102730.66;5026182;28;20021;-73
2022/03/01 02:48:02;;;;;;;25.30;14.25;;;;;;;1.98;64.06;102730.66;5031905;28;20381;-74
2022/03/01 02:50:28;;;;;;;23.98;14.02;;;;;;;1.99;63.87;102737.56;5032516;28;20049;-73
2022/03/01 02:52:53;;;;;;;26.08;13.82;;;;;;;2.00;63.38;102728.06;5015565;28;20033;-74
2022/03/01 02:55:19;;;;;;;25.00;13.57;;;;;;;2.02;64.24;102718.56;5012254;28;20474;-73
2022/03/01 02:57:44;;;;;;;21.15;13.50;;;;;;;2.03;63.96;102717.69;5012351;28;20037;-74
2022/03/01 03:00:10;;;;;;;24.67;13.82;;;;;;;2.05;63.19;102716.78;5012030;28;20494;-73
2022/03/01 03:02:36;;;;;;;20.80;13.00;;;;;;;2.07;62.94;102724.56;5038796;28;20029;-73
2022/03/01 03:05:01;;;;;;;21.98;13.52;;;;;;;2.09;63.01;102712.44;5046012;28;20029;-73
2022/03/01 03:07:27;;;;;;;20.33;13.63;;;;;;;2.11;62.61;102715.88;5031500;28;20104;-74
2022/03/01 03:09:52;;;;;;;26.80;13.45;;;;;;;2.13;63.20;102714.13;5010536;28;20029;-73
2022/03/01 03:12:18;;;;;;;22.52;14.27;;;;;;;2.17;62.23;102713.22;5012224;28;20017;-74
2022/03/01 03:14:44;;;;;;;25.75;13.20;;;;;;;2.16;62.32;102712.34;5010677;28;20022;-73
2022/03/01 03:17:09;;;;;;;24.17;13.50;;;;;;;2.18;63.06;102712.34;5011680;28;20372;-74
2022/03/01 03:19:36;;;;;;;21.17;13.73;;;;;;;2.19;62.82;102719.25;5011554;28;20028;-73
2022/03/01 03:22:03;;;;;;;20.80;13.45;;;;;;;2.20;62.18;102715.78;5011472;28;20128;-73
2022/03/01 03:24:28;;;;;;;26.05;13.95;;;;;;;2.21;62.68;102722.69;5009646;28;20026;-73
2022/03/01 03:26:54;;;;;;;22.38;14.15;;;;;;;2.21;63.43;102712.31;5011016;28;20037;-73
2022/03/01 03:29:20;;;;;;;21.50;13.02;;;;;;;2.22;63.36;102706.25;5009643;28;20022;-74
2022/03/01 03:31:45;;;;;;;19.75;13.77;;;;;;;2.22;62.27;102713.16;5009906;28;20045;-73
2022/03/01 03:34:10;;;;;;;21.40;14.02;;;;;;;2.23;62.77;102709.69;5011097;28;20038;-73
2022/03/01 03:36:42;;;;;;;22.42;14.07;;;;;;;2.23;62.33;102713.16;5010576;28;20042;-73
2022/03/01 03:39:09;;;;;;;20.93;14.20;;;;;;;2.22;62.28;102705.38;5011126;28;20025;-74
2022/03/01 03:41:35;;;;;;;22.55;13.93;;;;;;;2.23;63.28;102714.88;5006053;28;20030;-73
2022/03/01 03:44:01;;;;;;;22.67;14.35;;;;;;;2.24;62.63;102704.47;5011417;28;20381;-73
2022/03/01 03:46:27;;;;;;;22.65;14.38;;;;;;;2.23;62.82;102713.16;5031478;28;20162;-74
2022/03/01 03:48:53;;;;;;;22.33;14.10;;;;;;;2.24;62.96;102707.09;5046481;28;20033;-73
2022/03/01 03:51:20;;;;;;;21.48;13.50;;;;;;;2.22;62.51;102708.84;5028563;28;20143;-73
2022/03/01 03:53:46;;;;;;;24.00;14.48;;;;;;;2.23;62.64;102713.16;5031706;28;20559;-73
2022/03/01 03:56:11;;;;;;;20.92;13.82;;;;;;;2.22;62.49;102711.44;5030609;28;20382;-73
2022/03/01 03:58:37;;;;;;;22.42;14.10;;;;;;;2.23;62.87;102713.16;5015679;28;20037;-73
2022/03/01 04:01:03;;;;;;;23.90;14.15;;;;;;;2.22;62.69;102718.38;5010637;28;20423;-73
2022/03/01 04:03:29;;;;;;;23.88;13.98;;;;;;;2.23;62.09;102713.16;5012235;28;20033;-74
2022/03/01 04:05:54;;;;;;;20.83;13.77;;;;;;;2.21;61.73;102712.31;5010523;28;20493;-73
2022/03/01 04:08:19;;;;;;;24.25;14.43;;;;;;;2.22;61.89;102711.44;5011470;28;20336;-73
2022/03/01 04:10:45;;;;;;;20.90;13.85;;;;;;;2.21;61.93;102704.53;5011059;28;20049;-73
2022/03/01 04:13:10;;;;;;;24.33;14.38;;;;;;;2.21;62.54;102712.31;5010570;28;20076;-73
2022/03/01 04:15:36;;;;;;;20.30;13.65;;;;;;;2.21;62.31;102717.50;5011276;28;20029;-73
2022/03/01 04:18:03;;;;;;;22.25;14.57;;;;;;;2.19;63.04;102722.72;5005717;28;20068;-74
2022/03/01 04:20:28;;;;;;;19.95;14.13;;;;;;;2.21;62.42;102714.91;5009854;28;20028;-73
2022/03/01 04:22:54;;;;;;;23.90;14.82;;;;;;;2.22;63.05;102715.75;5010533;28;20026;-73
2022/03/01 04:25:19;;;;;;;25.23;14.93;;;;;;;2.21;62.20;102720.09;5025805;28;20116;-73
2022/03/01 04:27:44;;;;;;;23.45;15.70;;;;;;;2.20;62.61;102719.25;5009552;28;20022;-73
2022/03/01 04:30:11;;;;;;;22.60;14.65;;;;;;;2.22;63.45;102721.81;5010244;28;20433;-74
2022/03/01 04:32:37;;;;;;;21.52;14.57;;;;;;;2.21;63.11;102722.69;5009684;28;20042;-73
2022/03/01 04:35:03;;;;;;;22.48;14.85;;;;;;;2.20;62.19;102711.44;5004509;28;20074;-73
2022/03/01 04:37:30;;;;;;;21.30;14.70;;;;;;;2.22;62.52;102729.59;5010356;28;20022;-73
2022/03/01 04:39:56;;;;;;;27.48;15.40;;;;;;;2.22;62.19;102719.22;5024610;28;20144;-73
2022/03/01 04:42:22;;;;;;;24.67;15.07;;;;;;;2.23;63.15;102718.34;5010315;28;20104;-73
2022/03/01 04:44:47;;;;;;;22.55;15.02;;;;;;;2.24;62.39;102711.41;5017131;28;20531;-74
2022/03/01 04:47:14;;;;;;;21.17;15.18;;;;;;;2.24;63.17;102712.28;5029536;28;20185;-74
2022/03/01 04:49:40;;;;;;;21.45;15.48;;;;;;;2.25;62.12;102707.94;5028407;28;20067;-73
2022/03/01 04:52:05;;;;;;;22.45;14.35;;;;;;;2.25;62.38;102707.94;5016307;28;20347;-73
2022/03/01 04:54:31;;;;;;;23.80;15.15;;;;;;;2.26;62.33;102715.72;5010095;28;20045;-73
2022/03/01 04:56:56;;;;;;;21.00;14.30;;;;;;;2.27;62.90;102706.19;5010355;28;20040;-74
2022/03/01 04:59:22;;;;;;;23.02;14.77;;;;;;;2.28;63.36;102703.56;5010846;28;20109;-74
2022/03/01 05:01:47;;;;;;;23.48;15.05;;;;;;;2.27;62.11;102701.84;5001428;28;20029;-73
2022/03/01 05:04:12;;;;;;;21.50;14.68;;;;;;;2.30;61.61;102707.03;5014766;28;20021;-73
2022/03/01 05:06:37;;;;;;;25.15;14.52;;;;;;;2.30;61.79;102700.97;5028598;28;20029;-73
2022/03/01 05:09:03;;;;;;;23.35;14.70;;;;;;;2.31;61.59;102708.75;5005507;28;20033;-73
2022/03/01 05:11:29;;;;;;;24.15;15.07;;;;;;;2.32;61.15;102709.59;5010341;28;20489;-73
2022/03/01 05:13:54;;;;;;;24.05;14.80;;;;;;;2.33;61.79;102704.38;5010033;28;20520;-73
2022/03/01 05:16:19;;;;;;;22.95;14.70;;;;;;;2.34;62.06;102703.50;5009453;28;20463;-73
2022/03/01 05:18:45;;;;;;;23.45;14.63;;;;;;;2.36;61.67;102701.75;5009159;28;20018;-74
2022/03/01 05:21:10;;;;;;;24.63;14.82;;;;;;;2.37;61.13;102698.28;5008121;28;20026;-74
2022/03/01 05:23:35;;;;;;;25.23;14.73;;;;;;;2.38;61.70;102704.34;5006194;28;20080;-74
2022/03/01 05:26:01;;;;;;;28.13;15.25;;;;;;;2.37;62.00;102693.09;5006984;28;20030;-73
2022/03/01 05:28:26;;;;;;;21.50;14.43;;;;;;;2.39;62.71;102690.47;5009929;28;20022;-73
2022/03/01 05:30:51;;;;;;;23.90;14.60;;;;;;;2.39;61.60;102688.75;5008850;28;20105;-72
2022/03/01 05:33:17;;;;;;;22.33;14.63;;;;;;;2.39;62.05;102675.75;5009519;28;20060;-73
2022/03/01 05:35:43;;;;;;;20.73;13.85;;;;;;;2.40;62.52;102682.69;5009182;28;20053;-74
2022/03/01 05:38:09;;;;;;;21.88;14.02;;;;;;;2.41;62.31;102679.22;5008886;28;20033;-74
2022/03/01 05:40:35;;;;;;;21.33;13.68;;;;;;;2.43;61.72;102674.88;5004495;28;20026;-73
2022/03/01 05:43:01;;;;;;;23.52;14.57;;;;;;;2.44;61.16;102668.81;5008790;28;20030;-73
2022/03/01 05:45:27;;;;;;;22.45;13.65;;;;;;;2.45;61.04;102673.13;5022313;28;20127;-74
2022/03/01 05:47:53;;;;;;;22.83;14.05;;;;;;;2.46;61.06;102673.97;5029251;28;20053;-73
2022/03/01 05:50:19;;;;;;;23.83;13.90;;;;;;;2.49;61.41;102671.34;5029036;28;20478;-74
2022/03/01 05:52:46;;;;;;;19.77;13.82;;;;;;;2.47;60.73;102671.34;5029493;28;20022;-73
2022/03/01 05:55:13;;;;;;;25.13;14.45;;;;;;;2.48;61.32;102675.69;5029485;28;20029;-73
2022/03/01 05:57:38;;;;;;;21.83;14.27;;;;;;;2.49;61.23;102672.19;5035262;28;20050;-74
2022/03/01 06:00:07;;;;;;;21.75;13.95;;;;;;;2.50;60.55;102673.91;5008773;28;20065;-73
2022/03/01 06:02:33;;;;;;;24.75;13.65;;;;;;;2.51;60.75;102675.63;5009943;28;20441;-74
2022/03/01 06:04:58;;;;;;;20.77;13.88;;;;;;;2.50;60.52;102667.88;5009133;28;20022;-73
2022/03/01 06:07:23;;;;;;;22.27;13.45;;;;;;;2.50;60.73;102670.47;5009594;28;20056;-73
2022/03/01 06:09:49;;;;;;;24.08;14.48;;;;;;;2.49;61.34;102667.00;5009864;28;20026;-73
2022/03/01 06:12:14;;;;;;;24.73;14.32;;;;;;;2.49;60.59;102664.41;5009009;28;20095;-74
2022/03/01 06:14:39;;;;;;;23.05;14.70;;;;;;;2.48;61.09;102667.88;5007403;28;20045;-73
2022/03/01 06:17:05;;;;;;;20.95;13.85;;;;;;;2.49;60.76;102669.59;5012815;28;20033;-73
2022/03/01 06:19:30;;;;;;;20.90;13.48;;;;;;;2.47;60.87;102673.97;5012961;28;20556;-73
2022/03/01 06:21:56;;;;;;;19.95;13.65;;;;;;;2.47;61.68;102668.75;5013162;28;20432;-74
2022/03/01 06:24:23;;;;;;;22.70;14.13;;;;;;;2.45;61.58;102662.72;5012864;28;20112;-73
2022/03/01 06:26:48;;;;;;;20.58;14.23;;;;;;;2.44;60.70;102668.81;5012011;28;20378;-73
2022/03/01 06:29:13;;;;;;;23.00;14.70;;;;;;;2.44;61.02;102666.19;5012588;28;20028;-73
2022/03/01 06:31:39;;;;;;;22.40;13.80;;;;;;;2.44;61.54;102668.81;5021843;28;20033;-73
2022/03/01 06:34:04;;;;;;;23.23;14.70;;;;;;;2.42;62.68;102680.94;5011818;28;20038;-73
2022/03/01 06:36:29;;;;;;;24.77;14.57;;;;;;;2.44;61.70;102692.19;5012834;28;20030;-74
2022/03/01 06:38:55;;;;;;;21.75;14.30;;;;;;;2.42;61.71;102686.13;5012496;28;20083;-74
2022/03/01 06:41:20;;;;;;;22.98;15.60;;;;;;;2.42;61.64;102693.06;5011919;28;20482;-73
2022/03/01 06:43:45;;;;;;;26.15;16.27;;;;;;;2.41;61.81;102693.94;5012538;28;20482;-74
2022/03/01 06:46:11;;;;;;;25.40;15.02;;;;;;;2.41;62.81;102700.00;5029716;28;20022;-73
2022/03/01 06:48:36;;;;;;;22.98;15.45;;;;;;;2.42;63.32;102704.31;5026849;28;20030;-73
2022/03/01 06:51:03;;;;;;;22.70;15.25;;;;;;;2.42;62.83;102696.53;5012329;28;20029;-73
2022/03/01 06:53:29;;;;;;;23.88;15.05;;;;;;;2.41;62.78;102707.81;5012374;28;20030;-73
2022/03/01 06:55:54;;;;;;;21.40;14.63;;;;;;;2.42;62.37;102703.47;5012565;28;20026;-73
2022/03/01 06:58:19;;;;;;;25.65;15.55;;;;;;;2.41;62.82;102713.00;5012427;28;20030;-72
2022/03/01 07:00:45;;;;;;;25.15;15.85;;;;;;;2.42;63.93;102709.50;5011912;28;20108;-73
2022/03/01 07:03:10;;;;;;;26.30;15.80;;;;;;;2.44;64.01;102712.97;5011268;28;20509;-72
2022/03/01 07:05:35;;;;;;;24.45;15.32;;;;;;;2.44;64.08;102710.38;5011520;28;20067;-73
2022/03/01 07:08:01;;;;;;;22.52;15.25;;;;;;;2.46;62.97;102703.41;5022366;28;20029;-73
2022/03/01 07:10:26;;;;;;;28.73;16.05;;;;;;;2.48;62.82;102706.84;5012650;28;20026;-73
2022/03/01 07:12:51;;;;;;;24.08;16.10;;;;;;;2.51;63.30;102708.56;5012403;28;20100;-73
2022/03/01 07:15:18;;;;;;;25.58;16.20;;;;;;;2.54;62.84;102713.72;5011363;28;20033;-73
2022/03/01 07:17:47;;;;;;;25.45;15.98;;;;;;;2.57;63.24;102708.47;5011890;28;20654;-73
2022/03/01 07:20:13;;;;;;;22.05;15.75;;;;;;;2.61;63.62;102696.31;5012164;28;20398;-73
2022/03/01 07:22:39;;;;;;;27.83;17.10;;;;;;;2.63;62.33;102700.63;5010286;28;20505;-73
2022/03/01 07:25:05;;;;;;;29.52;16.92;;;;;;;2.67;62.27;102709.25;5010631;28;20030;-73
2022/03/01 07:27:31;;;;;;;26.63;17.02;;;;;;;2.71;62.73;102713.53;5011976;28;20022;-73
2022/03/01 07:29:56;;;;;;;25.60;17.20;;;;;;;2.74;63.13;102724.75;5010863;28;20095;-73
2022/03/01 07:32:22;;;;;;;27.92;16.50;;;;;;;2.78;62.69;102720.38;5011423;28;20433;-73
2022/03/01 07:34:47;;;;;;;26.73;17.33;;;;;;;2.81;62.99;102720.34;5011406;28;20560;-72
2022/03/01 07:37:12;;;;;;;27.63;18.13;;;;;;;2.85;63.36;102716.84;5010809;28;20037;-73
2022/03/01 07:39:38;;;;;;;26.70;16.58;;;;;;;2.88;61.38;102729.81;5011303;28;20104;-74
2022/03/01 07:42:04;;;;;;;25.42;16.83;;;;;;;2.90;61.61;102743.63;5006066;28;20030;-73
2022/03/01 07:44:29;;;;;;;30.10;17.40;;;;;;;2.94;60.99;102745.31;5015363;28;20067;-73
2022/03/01 07:46:56;;;;;;;29.58;17.77;;;;;;;2.96;61.57;102735.75;5030572;28;20374;-73
2022/03/01 07:49:21;;;;;;;26.77;16.35;;;;;;;3.00;61.81;102732.25;5031097;28;20056;-72
2022/03/01 07:51:46;;;;;;;24.65;17.15;;;;;;;3.02;62.02;102727.03;5030195;28;20022;-73
2022/03/01 07:54:12;;;;;;;25.75;17.25;;;;;;;3.04;61.21;102720.91;5031152;28;20049;-73
2022/03/01 07:56:37;;;;;;;25.38;16.52;;;;;;;3.06;61.70;102716.56;5030568;28;20473;-73
2022/03/01 07:59:02;;;;;;;28.67;17.75;;;;;;;3.09;61.40;102713.06;5010492;28;20034;-73
2022/03/01 08:01:28;;;;;;;26.63;17.17;;;;;;;3.10;61.45;102715.63;5011739;28;20026;-73
2022/03/01 08:03:53;;;;;;;28.35;16.50;;;;;;;3.11;61.66;102714.75;5025980;28;20041;-74
2022/03/01 08:06:19;;;;;;;27.67;16.70;;;;;;;3.13;60.73;102727.75;5026743;28;20433;-73
2022/03/01 08:08:44;;;;;;;25.90;16.38;;;;;;;3.16;61.01;102735.50;5011069;28;20409;-72
2022/03/01 08:11:10;;;;;;;25.15;16.70;;;;;;;3.17;60.76;102737.22;5010731;28;20025;-73
2022/03/01 08:13:36;;;;;;;26.20;16.60;;;;;;;3.19;60.48;102738.06;5010092;28;20497;-73
2022/03/01 08:16:03;;;;;;;24.33;16.00;;;;;;;3.22;61.38;102729.38;5010290;28;20387;-73
2022/03/01 08:18:29;;;;;;;25.38;16.80;;;;;;;3.25;61.11;102726.75;5009447;28;20486;-73
2022/03/01 08:20:57;;;;;;;25.10;16.58;;;;;;;3.27;61.55;102730.19;5011045;28;20056;-73
2022/03/01 08:23:22;;;;;;;25.55;16.20;;;;;;;3.29;61.08;102744.88;5011208;28;20038;-73
2022/03/01 08:25:48;;;;;;;26.48;16.90;;;;;;;3.32;61.30;102733.59;5010004;28;20022;-73
2022/03/01 08:28:13;;;;;;;27.25;16.60;;;;;;;3.35;61.31;102741.34;5010495;28;20072;-72
2022/03/01 08:30:39;;;;;;;26.50;16.75;;;;;;;3.38;61.63;102749.09;5010199;28;20036;-72
2022/03/01 08:33:04;;;;;;;25.15;16.67;;;;;;;3.40;61.54;102742.13;5004438;28;20033;-72
2022/03/01 08:35:32;;;;;;;26.75;16.75;;;;;;;3.44;61.43;102743.81;5010424;28;20054;-72
2022/03/01 08:38:02;;;;;;;25.42;16.60;;;;;;;3.47;61.53;102744.63;5010259;28;20056;-73
2022/03/01 08:40:28;;;;;;;24.88;15.68;;;;;;;3.51;61.13;102742.84;5010044;28;20057;-73
2022/03/01 08:42:53;;;;;;;27.48;17.50;;;;;;;3.55;61.50;102741.91;5010293;28;20060;-73
2022/03/01 08:45:19;;;;;;;24.73;16.05;;;;;;;3.59;61.02;102748.78;5021342;28;20040;-73
2022/03/01 08:47:44;;;;;;;30.70;17.08;;;;;;;3.63;61.55;102753.09;5029133;28;20018;-73
2022/03/01 08:50:10;;;;;;;26.08;17.42;;;;;;;3.67;60.72;102759.97;5013287;28;20037;-73
2022/03/01 08:52:39;;;;;;;25.52;16.38;;;;;;;3.74;60.52;102765.94;5010362;28;20026;-73
2022/03/01 08:55:07;;;;;;;27.25;17.02;;;;;;;3.77;59.17;102764.16;5009583;28;20053;-73
2022/03/01 08:57:32;;;;;;;26.08;17.02;;;;;;;3.84;59.87;102764.06;5010216;28;20398;-73
2022/03/01 08:59:57;;;;;;;26.25;16.65;;;;;;;3.88;60.17;102763.13;5007929;28;20022;-73
2022/03/01 09:02:26;;;;;;;26.85;16.45;;;;;;;3.94;59.65;102771.69;5008990;28;20064;-75
2022/03/01 09:04:51;;;;;;;23.95;16.13;;;;;;;4.00;59.47;102770.75;5010543;28;20030;-75
2022/03/01 09:07:16;;;;;;;24.40;16.13;;;;;;;4.07;60.81;102772.38;5004437;28;20074;-75
2022/03/01 09:09:42;;;;;;;24.58;15.82;;;;;;;4.15;59.51;102777.47;5010085;28;20057;-75
2022/03/01 09:12:07;;;;;;;21.00;15.38;;;;;;;4.20;58.52;102776.50;5010287;28;20119;-75
2022/03/01 09:14:33;;;;;;;26.98;15.57;;;;;;;4.27;58.39;102770.31;5009895;28;20034;-75
2022/03/01 09:16:58;;;;;;;23.50;16.17;;;;;;;4.32;58.33;102765.88;5010231;28;20425;-75
2022/03/01 09:19:23;;;;;;;22.13;16.15;;;;;;;4.39;58.65;102764.00;5010228;28;20386;-75
2022/03/01 09:21:49;;;;;;;23.42;15.25;;;;;;;4.46;58.33;102756.97;5009755;28;20049;-75
2022/03/01 09:24:14;;;;;;;22.65;14.93;;;;;;;4.52;58.62;102759.47;5004704;28;20113;-75
2022/03/01 09:26:40;;;;;;;23.15;16.00;;;;;;;4.56;58.59;102755.91;5009972;28;20057;-74
2022/03/01 09:29:05;;;;;;;23.38;14.85;;;;;;;4.62;58.28;102766.22;5009447;28;20127;-75
2022/03/01 09:31:31;;;;;;;28.70;15.60;;;;;;;4.65;58.11;102760.94;5010369;28;20029;-74
2022/03/01 09:33:57;;;;;;;22.25;15.48;;;;;;;4.70;57.87;102759.13;5009411;28;20494;-74
2022/03/01 09:36:22;;;;;;;21.63;15.27;;;;;;;4.74;58.04;102760.78;5008006;28;20374;-76
2022/03/01 09:38:49;;;;;;;24.00;15.60;;;;;;;4.81;57.79;102754.59;5008401;28;20049;-75
2022/03/01 09:41:14;;;;;;;26.30;16.00;;;;;;;4.87;57.45;102762.28;5005522;28;20033;-75
2022/03/01 09:43:41;;;;;;;24.38;16.63;;;;;;;4.90;57.86;102764.81;5008663;28;20095;-75
2022/03/01 09:46:09;;;;;;;21.27;14.90;;;;;;;4.97;57.14;102765.56;5026976;28;20029;-73
2022/03/01 09:48:37;;;;;;;22.58;14.95;;;;;;;5.01;56.12;102773.28;5031499;28;20029;-73
2022/03/01 09:51:05;;;;;;;22.00;14.90;;;;;;;5.07;56.09;102781.88;5032572;28;20025;-73
2022/03/01 09:53:31;;;;;;;23.13;15.65;;;;;;;5.12;55.99;102777.44;5033372;28;20056;-73
2022/03/01 09:55:59;;;;;;;23.30;15.27;;;;;;;5.17;57.29;102770.34;5032965;28;20334;-73
2022/03/01 09:58:25;;;;;;;24.33;15.35;;;;;;;5.23;56.47;102778.09;5008661;28;20115;-74
2022/03/01 10:00:50;;;;;;;25.17;15.32;;;;;;;5.27;56.64;102780.59;5013688;28;20022;-73
2022/03/01 10:03:18;;;;;;;23.02;15.70;;;;;;;5.33;56.90;102792.66;5012951;28;20030;-72
2022/03/01 10:05:43;;;;;;;21.98;15.05;;;;;;;5.38;56.66;102780.38;5013537;28;20045;-73
2022/03/01 10:08:11;;;;;;;22.73;14.95;;;;;;;5.45;57.14;102778.47;5013447;28;20025;-73
2022/03/01 10:10:42;;;;;;;22.20;15.35;;;;;;;5.49;56.28;102786.22;5012926;28;20033;-74
2022/03/01 10:13:08;;;;;;;21.27;14.65;;;;;;;5.54;55.79;102792.19;5010518;28;20029;-72
2022/03/01 10:15:34;;;;;;;24.52;15.15;;;;;;;5.57;54.93;102789.50;5009608;28;20042;-73
2022/03/01 10:18:12;;;;;;;24.85;15.32;;;;;;;5.62;55.51;102779.84;5012746;28;20018;-73
2022/03/01 10:20:39;;;;;;;21.73;15.32;;;;;;;5.66;55.86;102776.28;5013096;28;20030;-74
2022/03/01 10:23:04;;;;;;;23.58;15.95;;;;;;;5.71;55.70;102778.78;5013208;28;20022;-73
2022/03/01 10:25:30;;;;;;;22.42;14.95;;;;;;;5.77;55.46;102772.56;5012911;28;20026;-74
2022/03/01 10:27:56;;;;;;;22.35;14.93;;;;;;;5.81;55.46;102779.41;5013004;28;20030;-73
2022/03/01 10:30:30;;;;;;;22.48;15.38;;;;;;;5.84;55.58;102774.97;5010298;28;20128;-73
2022/03/01 10:33:02;;;;;;;26.27;15.65;;;;;;;5.88;53.74;102765.31;5011877;28;20030;-74
2022/03/01 10:35:28;;;;;;;22.30;15.48;;;;;;;5.93;54.72;102764.34;5012647;28;20054;-73
2022/03/01 10:37:53;;;;;;;21.58;15.07;;;;;;;6.00;54.38;102757.22;5027830;28;20033;-73
2022/03/01 10:40:23;;;;;;;22.48;15.00;;;;;;;6.08;54.99;102760.53;5011652;28;20036;-73
2022/03/01 10:43:00;;;;;;;20.67;15.02;;;;;;;6.18;55.09;102764.63;5027273;28;20041;-73
2022/03/01 10:45:44;;;;;;;24.55;15.57;;;;;;;6.26;55.13;102765.28;5024296;28;20489;-72
2022/03/01 10:48:22;;;;;;;20.75;15.27;;;;;;;6.36;54.78;102767.66;5013603;28;20389;-72
2022/03/01 10:51:09;;;;;;;22.45;15.32;;;;;;;6.46;54.80;102769.16;5012306;28;20088;-74
2022/03/01 10:53:37;;;;;;;21.40;15.27;;;;;;;6.51;53.16;102760.28;5012088;28;20084;-73
2022/03/01 10:56:08;;;;;;;24.70;15.45;;;;;;;6.63;53.86;102774.78;5012186;28;20049;-73
2022/03/01 10:58:36;;;;;;;24.50;15.93;;;;;;;6.72;52.61;102781.53;5012453;28;20038;-74
2022/03/01 11:01:03;;;;;;;22.50;14.80;;;;;;;6.78;52.13;102774.38;5011800;28;20393;-73
2022/03/01 11:03:30;;;;;;;23.75;15.27;;;;;;;6.85;53.21;102772.47;5007893;28;20018;-73
2022/03/01 11:05:56;;;;;;;23.33;15.35;;;;;;;6.89;51.92;102777.56;5012321;28;20025;-73
2022/03/01 11:08:24;;;;;;;21.98;15.65;;;;;;;6.94;53.48;102773.97;5012112;28;20401;-74
2022/03/01 11:10:53;;;;;;;23.98;15.18;;;;;;;7.01;53.26;102775.50;5012355;28;20401;-73
2022/03/01 11:13:25;;;;;;;20.63;14.25;;;;;;;7.10;53.53;102767.38;5027246;28;20018;-73